Time,TemperatureF,DewpointF,PressureIn,WindDirection,WindDirectionDegrees,WindSpeedMPH,WindSpeedGustMPH,Humidity,HourlyPrecipIn,Conditions,Clouds,dailyrainin,SoftwareType,DateUTC
2013-06-19 00:01:00,58.8,58.3,29.71,NNW,338,0.0,1.0,98,0.00,,,0.00,VWS V14.00,2013-06-19 04:01:00,
2013-06-19 00:06:00,58.8,58.3,29.71,NW,315,0.0,1.0,98,0.00,,,0.00,VWS V14.00,2013-06-19 04:06:00,
2013-06-19 00:11:00,58.8,58.3,29.71,NNW,338,0.0,1.0,98,0.00,,,0.00,VWS V14.00,2013-06-19 04:11:00,
2013-06-19 00:16:00,58.8,58.3,29.71,NNW,338,0.0,1.0,98,0.00,,,0.00,VWS V14.00,2013-06-19 04:16:00,
2013-06-19 00:21:00,58.8,58.3,29.71,NW,315,0.0,1.0,98,0.00,,,0.00,VWS V14.00,2013-06-19 04:21:00,
2013-06-19 00:26:00,58.6,58.1,29.71,North,0,0.0,1.0,98,0.00,,,0.00,VWS V14.00,2013-06-19 04:26:00,
2013-06-19 00:31:00,58.6,58.1,29.71,North,0,0.0,1.0,98,0.00,,,0.00,VWS V14.00,2013-06-19 04:31:00,
2013-06-19 00:36:00,58.8,58.3,29.71,North,0,0.0,1.0,98,0.00,,,0.00,VWS V14.00,2013-06-19 04:36:00,
2013-06-19 00:41:00,58.6,58.1,29.71,North,0,0.0,1.0,98,0.00,,,0.00,VWS V14.00,2013-06-19 04:41:00,
2013-06-19 00:46:00,58.6,58.1,29.71,NNW,338,0.0,1.0,98,0.00,,,0.00,VWS V14.00,2013-06-19 04:46:00,
2013-06-19 00:52:00,58.6,58.1,29.71,East,90,0.0,1.0,98,0.00,,,0.00,VWS V14.00,2013-06-19 04:52:00,
2013-06-19 07:49:00,60.1,59.5,29.74,NNW,338,0.0,1.0,98,0.00,,,0.00,VWS V14.00,2013-06-19 11:49:00,
2013-06-19 07:54:00,60.1,59.5,29.74,NNE,22,0.0,1.0,98,0.00,,,0.00,VWS V14.00,2013-06-19 11:54:00,
2013-06-19 07:59:00,60.3,59.7,29.74,ENE,68,0.0,1.0,98,0.00,,,0.00,VWS V14.00,2013-06-19 11:59:00,
2013-06-19 08:04:00,60.4,59.9,29.74,NE,45,7.0,8.0,98,0.00,,,0.00,VWS V14.00,2013-06-19 12:04:00,
2013-06-19 08:09:00,60.4,59.9,29.74,NE,45,8.2,9.2,98,0.00,,,0.00,VWS V14.00,2013-06-19 12:09:00,
2013-06-19 08:14:00,60.4,59.9,29.74,West,270,5.5,6.5,98,0.00,,,0.00,VWS V14.00,2013-06-19 12:14:00,
2013-06-19 08:19:00,60.4,59.9,29.74,NE,45,3.5,4.5,98,0.00,,,0.00,VWS V14.00,2013-06-19 12:19:00,
2013-06-19 08:24:00,60.8,60.2,29.74,North,0,0.0,1.0,98,0.00,,,0.00,VWS V14.00,2013-06-19 12:24:00,
2013-06-19 08:29:00,60.8,60.2,29.74,West,270,0.0,1.0,98,0.00,,,0.00,VWS V14.00,2013-06-19 12:29:00,
2013-06-19 08:34:00,61.0,60.4,29.76,NW,315,0.0,4.5,98,0.00,,,0.00,VWS V14.00,2013-06-19 12:34:00,
2013-06-19 08:39:00,61.0,60.4,29.76,East,90,4.7,5.7,98,0.00,,,0.00,VWS V14.00,2013-06-19 12:39:00,
2013-06-19 08:44:00,61.2,60.6,29.76,North,0,4.3,5.7,98,0.00,,,0.00,VWS V14.00,2013-06-19 12:44:00,
2013-06-19 08:49:00,61.3,60.8,29.76,NE,45,4.3,5.3,98,0.00,,,0.00,VWS V14.00,2013-06-19 12:49:00,
2013-06-19 08:54:00,61.2,60.3,29.76,North,0,2.0,5.7,97,0.00,,,0.00,VWS V14.00,2013-06-19 12:54:00,
2013-06-19 08:59:00,61.2,60.3,29.76,NE,45,4.7,6.1,97,0.00,,,0.00,VWS V14.00,2013-06-19 12:59:00,
2013-06-19 09:04:00,61.5,60.4,29.76,NNE,22,2.7,6.9,96,0.00,,,0.00,VWS V14.00,2013-06-19 13:04:00,
2013-06-19 09:09:00,61.7,60.3,29.76,NE,45,0.0,8.0,95,0.00,,,0.00,VWS V14.00,2013-06-19 13:09:00,
2013-06-19 09:14:00,62.1,60.3,29.76,North,0,0.0,1.0,94,0.00,,,0.00,VWS V14.00,2013-06-19 13:14:00,
2013-06-19 09:19:00,62.2,60.5,29.76,North,0,0.0,1.0,94,0.00,,,0.00,VWS V14.00,2013-06-19 13:19:00,
2013-06-19 09:24:00,63.0,61.2,29.76,ENE,68,4.7,5.7,94,0.00,,,0.00,VWS V14.00,2013-06-19 13:24:00,
2013-06-19 09:29:00,63.1,61.1,29.76,NE,45,0.0,4.9,93,0.00,,,0.00,VWS V14.00,2013-06-19 13:29:00,
2013-06-19 09:34:00,63.7,61.6,29.76,NNE,22,3.9,4.9,93,0.00,,,0.00,VWS V14.00,2013-06-19 13:34:00,
2013-06-19 09:39:00,64.0,61.0,29.76,NE,45,0.0,7.3,90,0.00,,,0.00,VWS V14.00,2013-06-19 13:39:00,
2013-06-19 09:44:00,64.2,61.5,29.76,NE,45,0.0,1.0,91,0.00,,,0.00,VWS V14.00,2013-06-19 13:44:00,
2013-06-19 09:49:00,64.2,61.2,29.76,NNW,338,1.6,3.3,90,0.00,,,0.00,VWS V14.00,2013-06-19 13:49:00,
2013-06-19 09:54:00,64.4,61.4,29.76,NNE,22,2.0,3.0,90,0.00,,,0.00,VWS V14.00,2013-06-19 13:54:00,
2013-06-19 09:59:00,64.6,61.9,29.76,NE,45,2.7,5.3,91,0.00,,,0.00,VWS V14.00,2013-06-19 13:59:00,
2013-06-19 10:04:00,65.1,61.5,29.76,North,0,7.4,8.4,88,0.00,,,0.00,VWS V14.00,2013-06-19 14:04:00,
2013-06-19 10:09:00,65.1,61.8,29.76,ENE,68,0.0,1.0,89,0.00,,,0.00,VWS V14.00,2013-06-19 14:09:00,
2013-06-19 10:14:00,65.5,62.5,29.76,NNW,338,0.0,3.3,90,0.00,,,0.00,VWS V14.00,2013-06-19 14:14:00,
2013-06-19 10:19:00,65.5,62.8,29.76,East,90,0.0,1.0,91,0.00,,,0.00,VWS V14.00,2013-06-19 14:19:00,
2013-06-19 10:24:00,65.7,63.3,29.76,North,0,0.0,1.0,92,0.00,,,0.00,VWS V14.00,2013-06-19 14:24:00,
2013-06-19 10:29:00,66.0,63.3,29.76,NW,315,0.0,1.0,91,0.00,,,0.00,VWS V14.00,2013-06-19 14:29:00,
2013-06-19 10:34:00,66.4,63.4,29.76,North,0,0.0,3.7,90,0.00,,,0.00,VWS V14.00,2013-06-19 14:34:00,
2013-06-19 10:39:00,66.4,63.4,29.76,NE,45,0.0,1.0,90,0.00,,,0.00,VWS V14.00,2013-06-19 14:39:00,
2013-06-19 10:44:00,66.4,63.0,29.76,NNE,22,0.0,5.7,89,0.00,,,0.00,VWS V14.00,2013-06-19 14:44:00,
2013-06-19 10:49:00,66.4,63.0,29.76,NE,45,6.7,7.7,89,0.00,,,0.00,VWS V14.00,2013-06-19 14:49:00,
2013-06-19 10:54:00,66.6,62.6,29.76,NW,315,0.0,1.0,87,0.00,,,0.00,VWS V14.00,2013-06-19 14:54:00,
2013-06-19 10:59:00,66.9,63.6,29.76,North,0,0.0,1.0,89,0.00,,,0.00,VWS V14.00,2013-06-19 14:59:00,
2013-06-19 11:04:00,67.5,64.1,29.76,NE,45,0.0,4.5,89,0.00,,,0.00,VWS V14.00,2013-06-19 15:04:00,
2013-06-19 11:09:00,67.5,62.1,29.76,North,0,5.9,6.9,83,0.00,,,0.00,VWS V14.00,2013-06-19 15:09:00,
2013-06-19 11:14:00,67.5,61.1,29.76,North,0,4.7,10.8,80,0.00,,,0.00,VWS V14.00,2013-06-19 15:14:00,
2013-06-19 11:19:00,67.3,62.0,29.79,ENE,68,7.0,8.0,83,0.00,,,0.00,VWS V14.00,2013-06-19 15:19:00,
2013-06-19 11:24:00,67.6,61.3,29.79,ENE,68,0.0,12.0,80,0.00,,,0.00,VWS V14.00,2013-06-19 15:24:00,
2013-06-19 11:29:00,67.8,62.8,29.79,East,90,0.0,1.0,84,0.00,,,0.00,VWS V14.00,2013-06-19 15:29:00,
2013-06-19 11:34:00,68.0,63.3,29.76,ESE,112,0.0,1.0,85,0.00,,,0.00,VWS V14.00,2013-06-19 15:34:00,
2013-06-19 11:39:00,68.2,62.8,29.76,NNE,22,0.0,1.0,83,0.00,,,0.00,VWS V14.00,2013-06-19 15:39:00,
2013-06-19 11:44:00,68.2,61.4,29.76,North,0,0.0,1.0,79,0.00,,,0.00,VWS V14.00,2013-06-19 15:44:00,
2013-06-19 11:49:00,68.2,62.5,29.76,NNE,22,0.0,1.0,82,0.00,,,0.00,VWS V14.00,2013-06-19 15:49:00,
2013-06-19 11:54:00,68.2,62.1,29.76,NNE,22,2.0,3.0,81,0.00,,,0.00,VWS V14.00,2013-06-19 15:54:00,
2013-06-19 11:59:00,68.4,62.3,29.76,NNE,22,0.0,1.0,81,0.00,,,0.00,VWS V14.00,2013-06-19 15:59:00,
2013-06-19 12:04:00,68.5,61.8,29.76,ENE,68,0.0,1.0,79,0.00,,,0.00,VWS V14.00,2013-06-19 16:04:00,
2013-06-19 12:09:00,68.4,59.8,29.76,ENE,68,2.7,5.7,74,0.00,,,0.00,VWS V14.00,2013-06-19 16:09:00,
2013-06-19 12:14:00,68.4,59.0,29.76,NW,315,0.0,1.0,72,0.00,,,0.00,VWS V14.00,2013-06-19 16:14:00,
2013-06-19 12:19:00,68.4,59.0,29.76,SSW,202,0.0,1.0,72,0.00,,,0.00,VWS V14.00,2013-06-19 16:19:00,
2013-06-19 12:24:00,68.4,59.0,29.76,NE,45,12.5,13.5,72,0.00,,,0.00,VWS V14.00,2013-06-19 16:24:00,
2013-06-19 12:29:00,68.4,57.8,29.76,NNW,338,5.1,6.1,69,0.00,,,0.00,VWS V14.00,2013-06-19 16:29:00,
2013-06-19 12:34:00,68.2,58.0,29.76,NE,45,0.0,1.0,70,0.00,,,0.00,VWS V14.00,2013-06-19 16:34:00,
2013-06-19 12:39:00,68.4,56.2,29.76,NNE,22,0.0,8.4,65,0.00,,,0.00,VWS V14.00,2013-06-19 16:39:00,
2013-06-19 12:44:00,68.4,57.4,29.76,NE,45,0.0,1.0,68,0.00,,,0.00,VWS V14.00,2013-06-19 16:44:00,
2013-06-19 12:49:00,68.2,56.4,29.76,ENE,68,5.9,6.9,66,0.00,,,0.00,VWS V14.00,2013-06-19 16:49:00,
2013-06-19 12:54:00,68.4,56.2,29.76,NE,45,0.0,1.0,65,0.00,,,0.00,VWS V14.00,2013-06-19 16:54:00,
2013-06-19 12:59:00,68.5,55.9,29.76,NNW,338,5.5,6.5,64,0.00,,,0.00,VWS V14.00,2013-06-19 16:59:00,
2013-06-19 13:04:00,68.4,56.6,29.76,North,0,0.0,1.0,66,0.00,,,0.00,VWS V14.00,2013-06-19 17:04:00,
2013-06-19 13:09:00,68.5,56.3,29.76,East,90,1.6,2.6,65,0.00,,,0.00,VWS V14.00,2013-06-19 17:09:00,
2013-06-19 13:14:00,68.2,55.5,29.76,NNE,22,0.0,1.0,64,0.00,,,0.00,VWS V14.00,2013-06-19 17:14:00,
2013-06-19 13:19:00,68.0,55.8,29.76,NNE,22,0.0,1.0,65,0.00,,,0.00,VWS V14.00,2013-06-19 17:19:00,
2013-06-19 13:24:00,68.2,56.8,29.76,WSW,248,0.0,1.0,67,0.00,,,0.00,VWS V14.00,2013-06-19 17:24:00,
2013-06-19 13:29:00,68.9,57.1,29.76,SSW,202,0.0,1.0,66,0.00,,,0.00,VWS V14.00,2013-06-19 17:29:00,
2013-06-19 13:34:00,69.1,57.7,29.76,East,90,0.0,1.0,67,0.00,,,0.00,VWS V14.00,2013-06-19 17:34:00,
2013-06-19 13:39:00,69.3,57.8,29.76,North,0,4.7,5.7,67,0.00,,,0.00,VWS V14.00,2013-06-19 17:39:00,
2013-06-19 13:44:00,68.5,55.0,29.76,NE,45,0.0,1.0,62,0.00,,,0.00,VWS V14.00,2013-06-19 17:44:00,
2013-06-19 13:49:00,68.2,55.5,29.79,NNE,22,0.0,1.0,64,0.00,,,0.00,VWS V14.00,2013-06-19 17:49:00,
2013-06-19 13:54:00,68.4,56.2,29.79,NE,45,7.0,8.0,65,0.00,,,0.00,VWS V14.00,2013-06-19 17:54:00,
2013-06-19 13:59:00,68.4,55.7,29.79,North,0,2.7,3.7,64,0.00,,,0.00,VWS V14.00,2013-06-19 17:59:00,
2013-06-19 14:04:00,68.5,56.7,29.79,WNW,292,0.0,1.0,66,0.00,,,0.00,VWS V14.00,2013-06-19 18:04:00,
2013-06-19 14:09:00,68.2,56.0,29.79,North,0,5.1,6.1,65,0.00,,,0.00,VWS V14.00,2013-06-19 18:09:00,
2013-06-19 14:14:00,67.8,55.2,29.79,NE,45,7.0,8.0,64,0.00,,,0.00,VWS V14.00,2013-06-19 18:14:00,
2013-06-19 14:19:00,67.3,54.3,29.79,NNE,22,0.0,12.0,63,0.00,,,0.00,VWS V14.00,2013-06-19 18:19:00,
2013-06-19 14:24:00,67.3,55.5,29.79,NE,45,5.9,6.9,66,0.00,,,0.00,VWS V14.00,2013-06-19 18:24:00,
2013-06-19 14:29:00,67.6,55.0,29.79,North,0,0.0,3.7,64,0.00,,,0.00,VWS V14.00,2013-06-19 18:29:00,
2013-06-19 14:34:00,67.6,55.0,29.79,NNW,338,0.0,1.0,64,0.00,,,0.00,VWS V14.00,2013-06-19 18:34:00,
2013-06-19 14:39:00,67.5,55.3,29.79,NW,315,2.0,3.0,65,0.00,,,0.00,VWS V14.00,2013-06-19 18:39:00,
2013-06-19 14:44:00,67.6,55.0,29.79,WNW,292,0.0,1.0,64,0.00,,,0.00,VWS V14.00,2013-06-19 18:44:00,
2013-06-19 14:49:00,67.6,55.0,29.79,NNE,22,0.0,1.0,64,0.00,,,0.00,VWS V14.00,2013-06-19 18:49:00,
2013-06-19 14:54:00,67.1,53.7,29.79,North,0,5.9,7.7,62,0.00,,,0.00,VWS V14.00,2013-06-19 18:54:00,
2013-06-19 14:59:00,66.9,52.1,29.79,NNE,22,7.4,8.4,59,0.00,,,0.00,VWS V14.00,2013-06-19 18:59:00,
2013-06-19 15:04:00,66.9,52.6,29.79,NW,315,0.0,1.0,60,0.00,,,0.00,VWS V14.00,2013-06-19 19:04:00,
2013-06-19 15:09:00,66.6,51.3,29.79,NW,315,0.0,1.0,58,0.00,,,0.00,VWS V14.00,2013-06-19 19:09:00,
2013-06-19 15:14:00,66.7,51.0,29.79,WNW,292,2.7,3.7,57,0.00,,,0.00,VWS V14.00,2013-06-19 19:14:00,
2013-06-19 15:19:00,66.9,51.2,29.79,North,0,7.0,8.0,57,0.00,,,0.00,VWS V14.00,2013-06-19 19:19:00,
2013-06-19 15:24:00,66.6,50.4,29.79,North,0,0.0,1.0,56,0.00,,,0.00,VWS V14.00,2013-06-19 19:24:00,
2013-06-19 15:29:00,66.7,52.9,29.79,WSW,248,0.0,1.0,61,0.00,,,0.00,VWS V14.00,2013-06-19 19:29:00,
2013-06-19 15:34:00,66.7,52.4,29.79,NNW,338,0.0,1.0,60,0.00,,,0.00,VWS V14.00,2013-06-19 19:34:00,
2013-06-19 15:39:00,66.7,53.3,29.79,WSW,248,0.0,1.0,62,0.00,,,0.00,VWS V14.00,2013-06-19 19:39:00,
2013-06-19 15:44:00,66.7,53.3,29.79,NW,315,0.0,1.0,62,0.00,,,0.00,VWS V14.00,2013-06-19 19:44:00,
2013-06-19 15:49:00,66.7,52.9,29.79,West,270,2.0,3.0,61,0.00,,,0.00,VWS V14.00,2013-06-19 19:49:00,
2013-06-19 15:54:00,66.9,52.6,29.79,SW,225,0.0,3.3,60,0.00,,,0.00,VWS V14.00,2013-06-19 19:54:00,
2013-06-19 15:59:00,66.7,52.9,29.79,NNE,22,0.0,1.0,61,0.00,,,0.00,VWS V14.00,2013-06-19 19:59:00,
2013-06-19 16:04:00,66.7,52.9,29.79,WSW,248,0.0,1.0,61,0.00,,,0.00,VWS V14.00,2013-06-19 20:04:00,
2013-06-19 16:09:00,66.7,52.0,29.79,SW,225,2.7,3.7,59,0.00,,,0.00,VWS V14.00,2013-06-19 20:09:00,
2013-06-19 16:14:00,66.6,52.7,29.79,West,270,0.0,4.9,61,0.00,,,0.00,VWS V14.00,2013-06-19 20:14:00,
2013-06-19 16:19:00,66.7,52.0,29.82,SW,225,0.0,1.0,59,0.00,,,0.00,VWS V14.00,2013-06-19 20:19:00,
2013-06-19 16:24:00,66.6,53.2,29.82,NW,315,0.0,1.0,62,0.00,,,0.00,VWS V14.00,2013-06-19 20:24:00,
2013-06-19 16:29:00,66.4,52.1,29.82,North,0,0.0,1.0,60,0.00,,,0.00,VWS V14.00,2013-06-19 20:29:00,
2013-06-19 16:34:00,66.4,52.5,29.79,North,0,1.6,5.7,61,0.00,,,0.00,VWS V14.00,2013-06-19 20:34:00,
2013-06-19 16:39:00,66.4,51.6,29.79,North,0,0.0,1.0,59,0.00,,,0.00,VWS V14.00,2013-06-19 20:39:00,
2013-06-19 16:43:00,66.2,51.0,29.79,North,0,0.0,1.0,58,0.00,,,0.00,VWS V14.00,2013-06-19 20:43:00,
2013-06-19 16:48:00,66.4,50.7,29.79,NNE,22,0.0,4.9,57,0.00,,,0.00,VWS V14.00,2013-06-19 20:48:00,
2013-06-19 16:53:00,66.2,51.0,29.79,NNE,22,0.0,1.0,58,0.00,,,0.00,VWS V14.00,2013-06-19 20:53:00,
2013-06-19 16:58:00,66.4,50.7,29.79,North,0,2.3,3.3,57,0.00,,,0.00,VWS V14.00,2013-06-19 20:58:00,
2013-06-19 17:03:00,66.0,50.4,29.79,NNW,338,0.0,1.0,57,0.00,,,0.00,VWS V14.00,2013-06-19 21:03:00,
2013-06-19 17:08:00,66.0,50.4,29.79,SW,225,2.0,3.0,57,0.00,,,0.00,VWS V14.00,2013-06-19 21:08:00,
2013-06-19 17:13:00,66.2,49.6,29.79,NNW,338,4.3,5.3,55,0.00,,,0.00,VWS V14.00,2013-06-19 21:13:00,
2013-06-19 17:18:00,66.4,49.7,29.79,North,0,2.3,6.5,55,0.00,,,0.00,VWS V14.00,2013-06-19 21:18:00,
2013-06-19 17:23:00,66.0,49.4,29.79,North,0,2.0,3.0,55,0.00,,,0.00,VWS V14.00,2013-06-19 21:23:00,
2013-06-19 17:28:00,66.0,49.9,29.79,WNW,292,2.3,3.3,56,0.00,,,0.00,VWS V14.00,2013-06-19 21:28:00,
2013-06-19 17:33:00,65.7,50.0,29.79,North,0,2.0,3.0,57,0.00,,,0.00,VWS V14.00,2013-06-19 21:33:00,
2013-06-19 17:38:00,65.7,50.0,29.79,NNW,338,0.0,3.0,57,0.00,,,0.00,VWS V14.00,2013-06-19 21:38:00,
2013-06-19 17:43:00,65.7,49.6,29.79,NNW,338,0.0,1.0,56,0.00,,,0.00,VWS V14.00,2013-06-19 21:43:00,
2013-06-19 17:48:00,65.7,49.6,29.79,NW,315,0.0,1.0,56,0.00,,,0.00,VWS V14.00,2013-06-19 21:48:00,
2013-06-19 17:53:00,65.7,49.6,29.79,North,0,4.7,5.7,56,0.00,,,0.00,VWS V14.00,2013-06-19 21:53:00,
2013-06-19 17:58:00,65.5,49.9,29.79,WNW,292,0.0,1.0,57,0.00,,,0.00,VWS V14.00,2013-06-19 21:58:00,
2013-06-19 18:03:00,65.7,49.6,29.82,West,270,0.0,1.0,56,0.00,,,0.00,VWS V14.00,2013-06-19 22:03:00,
2013-06-19 18:08:00,65.5,49.4,29.82,NNW,338,0.0,1.0,56,0.00,,,0.00,VWS V14.00,2013-06-19 22:08:00,
2013-06-19 18:13:00,65.5,49.4,29.82,SW,225,0.0,1.0,56,0.00,,,0.00,VWS V14.00,2013-06-19 22:13:00,
2013-06-19 18:18:00,65.3,49.2,29.82,East,90,3.5,4.5,56,0.00,,,0.00,VWS V14.00,2013-06-19 22:18:00,
2013-06-19 18:23:00,65.3,48.7,29.82,WSW,248,0.0,1.0,55,0.00,,,0.00,VWS V14.00,2013-06-19 22:23:00,
2013-06-19 18:28:00,65.1,49.0,29.82,WSW,248,0.0,1.0,56,0.00,,,0.00,VWS V14.00,2013-06-19 22:28:00,
2013-06-19 18:33:00,65.1,49.0,29.82,WNW,292,0.0,1.0,56,0.00,,,0.00,VWS V14.00,2013-06-19 22:33:00,
2013-06-19 18:38:00,65.3,48.2,29.82,North,0,0.0,1.0,54,0.00,,,0.00,VWS V14.00,2013-06-19 22:38:00,
2013-06-19 18:43:00,65.1,49.0,29.82,NW,315,0.0,1.0,56,0.00,,,0.00,VWS V14.00,2013-06-19 22:43:00,
2013-06-19 18:48:00,64.9,48.9,29.82,WNW,292,0.0,1.0,56,0.00,,,0.00,VWS V14.00,2013-06-19 22:48:00,
2013-06-19 18:53:00,64.8,49.2,29.82,West,270,0.0,1.0,57,0.00,,,0.00,VWS V14.00,2013-06-19 22:53:00,
2013-06-19 18:58:00,64.8,48.7,29.82,WSW,248,0.0,1.0,56,0.00,,,0.00,VWS V14.00,2013-06-19 22:58:00,
2013-06-19 19:03:00,64.8,48.7,29.82,WNW,292,0.0,1.0,56,0.00,,,0.00,VWS V14.00,2013-06-19 23:03:00,
2013-06-19 19:08:00,64.6,49.5,29.82,NW,315,0.0,1.0,58,0.00,,,0.00,VWS V14.00,2013-06-19 23:08:00,
2013-06-19 19:13:00,64.6,49.5,29.82,NW,315,0.0,1.0,58,0.00,,,0.00,VWS V14.00,2013-06-19 23:13:00,
2013-06-19 19:18:00,64.4,49.3,29.82,WNW,292,0.0,1.0,58,0.00,,,0.00,VWS V14.00,2013-06-19 23:18:00,
2013-06-19 19:23:00,64.4,49.3,29.82,South,180,0.0,1.0,58,0.00,,,0.00,VWS V14.00,2013-06-19 23:23:00,
2013-06-19 19:28:00,64.4,49.8,29.82,WNW,292,0.0,1.0,59,0.00,,,0.00,VWS V14.00,2013-06-19 23:28:00,
2013-06-19 19:33:00,64.2,50.1,29.82,West,270,0.0,1.0,60,0.00,,,0.00,VWS V14.00,2013-06-19 23:33:00,
2013-06-19 19:38:00,64.2,50.5,29.82,WNW,292,0.0,1.0,61,0.00,,,0.00,VWS V14.00,2013-06-19 23:38:00,
2013-06-19 19:43:00,64.2,50.9,29.82,NW,315,0.0,1.0,62,0.00,,,0.00,VWS V14.00,2013-06-19 23:43:00,
2013-06-19 19:48:00,64.0,50.8,29.85,NNW,338,0.0,1.0,62,0.00,,,0.00,VWS V14.00,2013-06-19 23:48:00,
2013-06-19 19:53:00,64.0,50.8,29.85,WSW,248,0.0,1.0,62,0.00,,,0.00,VWS V14.00,2013-06-19 23:53:00,
2013-06-19 19:58:00,63.9,51.0,29.85,NW,315,0.0,1.0,63,0.00,,,0.00,VWS V14.00,2013-06-19 23:58:00,
2013-06-19 20:03:00,63.9,51.0,29.85,NW,315,0.0,1.0,63,0.00,,,0.00,VWS V14.00,2013-06-20 00:03:00,
2013-06-19 20:08:00,63.7,51.3,29.85,South,180,0.0,1.0,64,0.00,,,0.00,VWS V14.00,2013-06-20 00:08:00,
2013-06-19 20:13:00,63.7,51.3,29.85,NW,315,0.0,1.0,64,0.00,,,0.00,VWS V14.00,2013-06-20 00:13:00,
2013-06-19 20:18:00,63.5,51.1,29.85,WSW,248,0.0,1.0,64,0.00,,,0.00,VWS V14.00,2013-06-20 00:18:00,
2013-06-19 20:23:00,63.5,51.1,29.85,WSW,248,0.0,1.0,64,0.00,,,0.00,VWS V14.00,2013-06-20 00:23:00,
2013-06-19 20:28:00,63.3,51.4,29.85,WNW,292,0.0,1.0,65,0.00,,,0.00,VWS V14.00,2013-06-20 00:28:00,
2013-06-19 20:33:00,63.3,51.8,29.85,WNW,292,0.0,1.0,66,0.00,,,0.00,VWS V14.00,2013-06-20 00:33:00,
2013-06-19 20:38:00,63.3,51.8,29.85,SSW,202,0.0,1.0,66,0.00,,,0.00,VWS V14.00,2013-06-20 00:38:00,
2013-06-19 20:43:00,63.1,52.0,29.85,WSW,248,0.0,1.0,67,0.00,,,0.00,VWS V14.00,2013-06-20 00:43:00,
2013-06-19 20:48:00,63.1,52.0,29.85,WSW,248,0.0,1.0,67,0.00,,,0.00,VWS V14.00,2013-06-20 00:48:00,
2013-06-19 20:53:00,63.0,52.2,29.85,West,270,0.0,1.0,68,0.00,,,0.00,VWS V14.00,2013-06-20 00:53:00,
2013-06-19 20:58:00,63.0,52.2,29.85,West,270,0.0,1.0,68,0.00,,,0.00,VWS V14.00,2013-06-20 00:58:00,
2013-06-19 21:03:00,63.0,52.2,29.85,West,270,0.0,1.0,68,0.00,,,0.00,VWS V14.00,2013-06-20 01:03:00,
2013-06-19 21:08:00,62.8,52.1,29.85,West,270,0.0,1.0,68,0.00,,,0.00,VWS V14.00,2013-06-20 01:08:00,
2013-06-19 21:13:00,62.8,51.7,29.88,WSW,248,0.0,1.0,67,0.00,,,0.00,VWS V14.00,2013-06-20 01:13:00,
2013-06-19 21:18:00,62.8,51.3,29.88,SW,225,0.0,1.0,66,0.00,,,0.00,VWS V14.00,2013-06-20 01:18:00,
2013-06-19 21:23:00,62.8,50.8,29.88,SW,225,0.0,1.0,65,0.00,,,0.00,VWS V14.00,2013-06-20 01:23:00,
2013-06-19 21:28:00,62.8,50.0,29.88,SW,225,0.0,1.0,63,0.00,,,0.00,VWS V14.00,2013-06-20 01:28:00,
2013-06-19 21:33:00,62.8,50.0,29.88,WSW,248,0.0,1.0,63,0.00,,,0.00,VWS V14.00,2013-06-20 01:33:00,
2013-06-19 21:38:00,62.8,50.0,29.88,WNW,292,0.0,1.0,63,0.00,,,0.00,VWS V14.00,2013-06-20 01:38:00,
2013-06-19 21:43:00,62.8,49.6,29.88,SW,225,0.0,1.0,62,0.00,,,0.00,VWS V14.00,2013-06-20 01:43:00,
2013-06-19 21:48:00,62.6,49.8,29.88,SW,225,0.0,1.0,63,0.00,,,0.00,VWS V14.00,2013-06-20 01:48:00,
2013-06-19 21:53:00,62.4,50.1,29.88,SW,225,0.0,1.0,64,0.00,,,0.00,VWS V14.00,2013-06-20 01:53:00,
2013-06-19 21:58:00,62.4,49.7,29.88,SW,225,0.0,1.0,63,0.00,,,0.00,VWS V14.00,2013-06-20 01:58:00,
2013-06-19 22:03:00,62.6,49.8,29.91,SW,225,0.0,1.0,63,0.00,,,0.00,VWS V14.00,2013-06-20 02:03:00,
2013-06-19 22:08:00,62.6,49.4,29.91,WSW,248,1.6,2.6,62,0.00,,,0.00,VWS V14.00,2013-06-20 02:08:00,
2013-06-19 22:13:00,62.6,49.0,29.91,SW,225,0.0,3.3,61,0.00,,,0.00,VWS V14.00,2013-06-20 02:13:00,
2013-06-19 22:18:00,62.6,48.5,29.91,SW,225,0.0,2.6,60,0.00,,,0.00,VWS V14.00,2013-06-20 02:18:00,
2013-06-19 22:23:00,62.6,48.1,29.91,SSW,202,0.0,1.0,59,0.00,,,0.00,VWS V14.00,2013-06-20 02:23:00,
2013-06-19 22:28:00,62.8,48.3,29.91,SW,225,0.0,1.0,59,0.00,,,0.00,VWS V14.00,2013-06-20 02:28:00,
2013-06-19 22:33:00,62.6,48.5,29.91,SW,225,0.0,1.0,60,0.00,,,0.00,VWS V14.00,2013-06-20 02:33:00,
2013-06-19 22:38:00,62.2,48.6,29.91,SW,225,0.0,1.0,61,0.00,,,0.00,VWS V14.00,2013-06-20 02:38:00,
2013-06-19 22:43:00,62.2,48.6,29.91,WSW,248,0.0,1.0,61,0.00,,,0.00,VWS V14.00,2013-06-20 02:43:00,
2013-06-19 22:48:00,62.2,49.1,29.91,SW,225,0.0,1.0,62,0.00,,,0.00,VWS V14.00,2013-06-20 02:48:00,
2013-06-19 22:53:00,62.2,49.5,29.91,SW,225,0.0,1.0,63,0.00,,,0.00,VWS V14.00,2013-06-20 02:53:00,
2013-06-19 22:58:00,62.2,49.5,29.91,SW,225,0.0,1.0,63,0.00,,,0.00,VWS V14.00,2013-06-20 02:58:00,
2013-06-19 23:03:00,62.1,49.3,29.91,SW,225,0.0,1.0,63,0.00,,,0.00,VWS V14.00,2013-06-20 03:03:00,
2013-06-19 23:08:00,62.1,49.3,29.91,SW,225,0.0,1.0,63,0.00,,,0.00,VWS V14.00,2013-06-20 03:08:00,
2013-06-19 23:13:00,62.1,49.8,29.91,WSW,248,0.0,1.0,64,0.00,,,0.00,VWS V14.00,2013-06-20 03:13:00,
2013-06-19 23:18:00,61.9,49.6,29.91,SW,225,0.0,1.0,64,0.00,,,0.00,VWS V14.00,2013-06-20 03:18:00,
2013-06-19 23:23:00,61.9,49.6,29.91,SW,225,0.0,1.0,64,0.00,,,0.00,VWS V14.00,2013-06-20 03:23:00,
2013-06-19 23:28:00,62.1,49.8,29.91,SW,225,0.0,1.0,64,0.00,,,0.00,VWS V14.00,2013-06-20 03:28:00,
2013-06-19 23:33:00,61.9,49.6,29.91,West,270,0.0,1.0,64,0.00,,,0.00,VWS V14.00,2013-06-20 03:33:00,
2013-06-19 23:38:00,61.9,49.6,29.91,SW,225,0.0,1.0,64,0.00,,,0.00,VWS V14.00,2013-06-20 03:38:00,
2013-06-19 23:43:00,61.9,49.6,29.91,SW,225,0.0,1.0,64,0.00,,,0.00,VWS V14.00,2013-06-20 03:43:00,
2013-06-19 23:48:00,61.7,49.4,29.91,SW,225,0.0,1.0,64,0.00,,,0.00,VWS V14.00,2013-06-20 03:48:00,
2013-06-19 23:53:00,61.7,49.4,29.91,WNW,292,0.0,1.0,64,0.00,,,0.00,VWS V14.00,2013-06-20 03:53:00,
2013-06-19 23:58:00,61.7,49.4,29.91,NW,315,0.0,1.0,64,0.00,,,0.00,VWS V14.00,2013-06-20 03:58:00,